Date,TemperatureHighF,TemperatureAvgF,TemperatureLowF,DewpointHighF,DewpointAvgF,DewpointLowF,HumidityHigh,HumidityAvg,HumidityLow,PressureMaxIn,PressureMinIn,WindSpeedMaxMPH,WindSpeedAvgMPH,GustSpeedMaxMPH,PrecipitationSumIn
2013-1-1,49,46,43,47,39,28,92,76,49,30.19,30.04,5,1,7,0.31
2013-1-2,50,46,42,47,42,36,95,85,63,30.21,30.02,3,1,7,0.19
2013-1-8,57,48,41,41,38,35,84,70,53,30.50,30.46,2,0,3,0.00
2013-1-9,69,52,35,53,44,31,91,75,53,30.55,30.47,6,1,6,0.00
2013-1-10,66,53,44,50,40,34,93,66,35,30.62,30.50,5,1,6,0.00
2013-1-11,50,45,42,44,42,40,94,91,72,30.50,30.27,7,1,9,0.07
2013-1-12,69,56,45,63,53,44,95,92,78,30.28,30.21,3,1,5,0.01
2013-1-13,77,65,55,63,59,54,95,80,61,30.24,30.16,9,3,11,0.00
2013-1-14,64,62,58,62,60,57,96,92,83,30.25,30.18,6,2,7,0.29
2013-1-15,57,44,40,56,42,39,96,95,91,30.32,30.17,6,2,10,0.17
2013-1-16,50,44,39,49,43,38,96,96,94,30.16,30.07,5,1,6,0.36
2013-1-17,50,43,32,48,42,31,96,95,93,30.26,29.98,7,2,12,1.88
2013-1-18,51,35,27,45,30,23,95,83,60,30.65,30.26,3,0,5,0.08
2013-1-19,49,37,24,36,29,21,91,74,51,30.63,30.30,3,1,7,0.12
2013-1-20,59,46,35,40,32,27,76,58,40,30.29,30.15,5,2,9,0.00
2013-1-21,57,44,30,39,28,19,81,56,37,30.24,30.03,8,2,12,0.00
2013-1-22,38,32,24,18,7,1,46,34,23,30.39,30.11,8,2,12,0.00
2013-1-23,40,29,17,19,12,4,61,48,37,30.47,30.16,6,2,10,0.00
2013-1-24,40,32,24,27,14,3,74,49,29,30.60,30.09,9,2,12,0.00
2013-1-25,26,23,19,23,13,2,87,66,43,30.62,30.22,7,2,9,0.00
2013-1-26,41,31,26,34,27,23,91,84,72,30.50,30.20,3,1,6,0.04
2013-1-27,43,34,25,32,26,19,86,73,62,30.69,30.50,8,2,10,0.01
2013-1-28,49,42,34,45,35,27,91,77,67,30.60,30.35,5,2,7,0.02
2013-1-29,71,57,41,58,51,38,94,81,64,30.37,30.19,8,3,10,0.00
2013-1-30,72,65,56,64,60,53,92,85,69,30.19,29.56,17,9,22,1.01
2013-1-31,55,43,34,52,29,20,89,59,42,30.12,29.62,10,6,15,0.01
2013-2-1,40,33,23,28,14,6,64,46,30,30.47,29.99,13,4,15,0.00
2013-2-2,43,33,19,33,17,7,82,53,36,30.48,30.14,10,2,10,0.03
2013-2-3,50,40,32,33,28,21,88,66,43,30.13,29.97,9,3,12,0.00
2013-2-4,50,38,24,29,24,16,75,58,41,30.25,30.12,8,2,8,0.00
2013-2-5,58,45,36,38,31,26,71,59,44,30.11,30.02,6,1,7,0.00
2013-2-6,59,45,33,35,28,22,83,54,28,30.37,30.10,6,1,7,0.00
2013-2-7,42,39,36,36,32,23,90,74,52,30.42,30.27,5,2,7,0.11
2013-2-8,56,46,36,48,37,27,94,71,46,30.19,29.97,10,3,12,0.11
2013-2-9,51,40,29,28,22,18,77,52,28,30.45,30.19,6,3,9,0.00
2013-2-10,54,42,28,38,24,16,83,51,34,30.57,30.30,10,3,12,0.11
2013-2-11,57,50,44,55,48,39,94,90,83,30.30,30.08,8,6,10,0.12
2013-2-12,58,50,41,50,36,29,94,60,35,30.23,30.04,7,1,10,0.00
2013-2-13,49,46,43,46,42,34,92,84,57,30.06,29.76,0,0,0,0.31
2013-2-14,52,45,34,44,36,28,88,70,50,30.17,29.96,0,0,0,0.00
2013-2-15,61,46,32,44,33,28,89,65,39,30.20,30.04,0,0,0,0.01
2013-2-16,42,35,29,33,28,15,90,77,51,30.08,29.94,0,0,0,0.09
2013-2-17,37,29,22,17,11,7,63,47,31,30.35,30.05,0,0,0,0.00
2013-2-18,54,37,18,28,19,8,69,49,34,30.47,30.30,0,0,0,0.00
2013-2-19,46,40,33,42,32,19,89,75,54,30.32,29.98,0,0,0,0.17
2013-2-20,53,40,26,26,19,12,65,44,24,30.24,30.10,5,0,7,0.00
2013-2-21,54,40,23,24,17,11,62,40,24,30.36,30.21,5,1,10,0.00
2013-2-22,43,36,33,34,31,23,93,85,45,30.43,30.22,8,1,8,0.58
2013-2-23,43,38,34,41,37,32,95,93,92,30.23,29.94,2,0,4,0.26
2013-2-24,59,48,38,45,36,23,95,67,34,30.15,29.92,6,2,10,0.00
2013-2-25,42,38,33,26,24,22,69,57,49,30.31,30.14,5,1,7,0.00
2013-2-26,42,37,32,40,34,24,95,88,63,30.22,29.70,5,2,10,1.29
2013-2-27,56,45,38,44,39,34,94,79,56,29.91,29.75,6,2,9,0.01
2013-2-28,49,40,31,37,29,25,85,65,45,29.97,29.81,7,2,14,0.00
2013-3-1,46,39,32,33,28,24,76,64,52,30.02,29.95,6,1,8,0.00
2013-3-2,47,39,32,31,25,19,72,57,48,30.03,29.92,5,1,8,0.00
2013-3-3,44,35,28,24,19,14,62,52,42,30.09,29.97,7,3,10,0.00
2013-3-4,49,36,23,22,17,12,63,46,29,30.21,30.08,6,2,10,0.00
2013-3-5,47,42,35,41,32,20,94,70,45,30.16,29.68,7,2,10,0.36
2013-3-6,46,40,34,40,29,24,94,67,46,30.19,29.68,14,5,18,0.13
2013-3-7,51,40,32,33,27,21,73,61,43,30.36,30.18,8,2,12,0.00
2013-3-8,53,41,27,28,24,20,76,53,33,30.41,30.29,8,2,12,0.00
2013-3-9,59,44,28,35,28,20,76,53,36,30.44,30.34,3,1,6,0.00
2013-3-10,68,52,36,41,33,26,68,51,34,30.41,30.29,8,2,10,0.00
2013-3-11,68,54,41,53,41,23,83,60,41,30.32,30.00,13,6,18,0.02
2013-3-12,66,58,46,56,48,31,92,73,38,30.09,29.86,14,5,17,1.03
2013-3-13,55,44,33,34,27,17,80,53,34,30.24,30.08,12,3,14,0.00
2013-3-14,61,40,27,24,18,14,60,42,22,30.35,30.23,9,3,12,0.00
2013-3-15,65,47,27,36,27,16,65,47,31,30.28,30.00,8,2,13,0.00
2013-3-16,77,64,50,51,45,35,67,52,37,30.00,29.80,10,3,12,0.00
2013-3-17,58,51,40,51,44,37,89,76,61,30.25,29.97,7,2,10,0.00
2013-3-18,41,39,37,38,37,35,94,92,90,30.27,29.94,9,2,10,0.39
2013-3-19,62,48,36,45,32,17,95,62,23,30.14,29.93,10,3,16,0.00
2013-3-20,56,47,39,26,18,11,42,32,26,30.22,29.90,7,2,12,0.00
2013-3-21,46,38,29,27,17,10,60,43,30,30.07,29.87,8,4,14,0.00
2013-3-22,51,37,21,23,16,9,62,44,28,30.16,30.07,7,2,9,0.00
2013-3-23,57,45,37,31,26,20,63,47,34,30.16,30.01,6,1,7,0.00
2013-3-24,42,38,35,37,34,28,92,84,63,30.03,29.65,7,1,8,0.67
2013-3-25,46,39,34,40,30,23,93,70,47,29.83,29.62,10,3,16,0.02
2013-3-26,46,39,32,30,26,24,74,60,47,30.14,29.83,8,3,12,0.00
2013-3-27,49,40,32,27,24,21,73,53,38,30.24,30.13,9,3,13,0.00
2013-3-28,54,38,31,28,22,19,62,52,34,30.28,30.18,7,2,14,0.00
2013-3-29,60,46,30,33,27,20,71,48,29,30.33,30.17,5,1,9,0.00
2013-3-30,68,55,39,42,35,29,70,49,33,30.23,30.08,5,1,9,0.00
2013-3-31,66,55,48,56,49,39,90,80,63,30.08,29.82,7,3,10,0.74
2013-4-1,70,59,51,51,45,35,91,64,38,29.95,29.84,8,3,12,0.03
2013-4-2,60,50,38,35,30,23,69,48,27,30.16,29.95,7,2,14,0.00
2013-4-3,60,49,39,29,24,18,47,37,25,30.28,30.13,5,1,12,0.00
2013-4-4,48,41,36,34,27,17,91,62,32,30.32,29.96,3,2,9,1.03
2013-4-5,62,46,35,48,38,33,93,76,42,30.04,29.91,6,2,8,0.01
2013-4-6,67,54,40,42,36,31,72,53,38,30.25,30.04,7,2,10,0.00
2013-4-7,70,57,42,48,41,32,75,56,41,30.26,30.11,8,2,11,0.00
2013-4-8,78,66,55,59,52,45,82,61,45,30.18,30.07,8,3,12,0.00
2013-4-9,86,72,58,62,56,50,79,58,40,30.21,30.09,5,2,9,0.00
2013-4-10,87,75,62,64,58,54,77,57,42,30.13,29.97,7,2,10,0.00
2013-4-11,80,71,62,64,60,55,83,68,54,30.01,29.79,10,4,15,0.00
2013-4-12,81,72,63,68,58,38,92,66,36,29.81,29.64,12,5,19,0.28
2013-4-13,75,63,48,47,41,36,66,46,31,30.03,29.82,6,1,9,0.00
2013-4-14,80,64,47,49,42,36,71,46,29,30.10,30.02,8,2,11,0.00
2013-4-15,67,62,57,58,54,50,88,77,63,30.21,30.03,2,1,8,0.15
2013-4-16,77,67,57,64,58,52,90,74,61,30.30,30.20,6,2,9,0.00
2013-4-17,80,70,60,63,59,54,85,69,52,30.24,30.13,5,1,10,0.01
2013-4-18,78,70,63,65,60,58,86,71,52,30.19,30.03,10,4,14,0.00
2013-4-19,76,68,60,68,63,56,92,85,75,30.03,29.76,12,5,16,0.81
2013-4-20,62,54,44,53,38,31,84,55,40,30.26,29.87,7,2,10,0.00
2013-4-21,62,52,43,42,36,31,67,56,46,30.46,30.26,5,2,12,0.00
2013-4-22,63,52,39,38,34,30,79,53,29,30.44,30.25,6,2,9,0.00
2013-4-23,69,57,47,54,46,38,81,68,56,30.28,30.12,5,2,7,0.02
2013-4-24,73,62,52,59,53,48,87,72,55,30.14,30.00,6,2,14,0.00
2013-4-25,70,60,50,56,42,36,76,53,32,30.28,30.03,6,2,10,0.00
2013-4-26,73,60,48,44,38,31,63,45,30,30.43,30.29,7,1,9,0.00
2013-4-27,67,60,55,52,47,41,73,61,55,30.36,30.27,5,1,7,0.00
2013-4-28,58,55,53,53,51,49,94,86,74,30.26,30.07,5,2,7,1.78
2013-4-29,67,61,55,63,58,53,95,90,82,30.06,29.98,6,1,9,0.35
2013-4-30,65,60,57,60,56,53,92,87,79,30.19,30.02,2,1,5,0.01
2013-5-1,63,58,56,57,54,52,90,87,82,30.31,30.18,3,1,10,0.01
2013-5-2,61,57,54,56,54,51,90,88,83,30.33,30.26,3,1,7,0.00
2013-5-3,68,58,50,55,50,43,90,75,57,30.26,30.15,5,2,9,0.00
2013-5-4,62,54,48,50,46,42,87,76,64,30.18,30.06,6,2,9,0.00
2013-5-5,55,52,49,53,48,44,93,87,82,30.08,29.94,6,2,9,0.23
2013-5-6,66,59,55,64,57,53,95,92,87,29.96,29.82,5,2,10,1.23
2013-5-7,68,59,54,59,54,52,94,84,63,29.95,29.86,6,1,9,0.01
2013-5-8,69,61,54,61,56,50,91,83,70,30.02,29.92,5,1,8,0.11
2013-5-9,78,66,52,62,56,50,92,73,51,30.08,30.00,5,1,9,0.00
2013-5-10,84,71,57,66,59,52,87,67,50,30.08,29.96,3,1,9,0.00
2013-5-11,81,72,66,64,61,59,81,69,55,29.97,29.82,5,1,9,0.09
2013-5-12,71,64,55,60,48,36,88,60,34,30.03,29.84,7,2,10,0.01
2013-5-13,66,56,44,40,37,33,72,49,32,30.17,30.04,6,1,9,0.00
2013-5-14,72,58,42,47,40,33,74,54,39,30.25,30.07,3,1,9,0.00
2013-5-15,88,71,57,66,55,43,73,57,46,30.07,29.93,3,1,9,0.00
2013-5-16,85,75,65,63,59,57,78,60,44,30.02,29.93,3,1,6,0.00
2013-5-17,88,75,62,67,62,55,83,64,45,30.10,30.01,6,1,8,0.00
2013-5-18,75,69,65,65,62,59,86,78,69,30.17,30.09,3,1,8,0.17
2013-5-19,74,68,64,70,65,61,93,89,82,30.15,30.07,6,3,8,0.39
2013-5-20,68,67,67,65,64,64,92,91,90,30.11,30.08,5,3,6,0.00
2013-6-5,73,70,66,67,64,62,90,82,78,30.24,30.12,6,1,8,0.22
2013-6-6,73,69,66,71,67,63,94,93,86,30.13,29.94,8,3,10,0.75
2013-6-7,73,69,67,71,67,66,94,93,91,29.96,29.75,5,1,7,1.27
2013-6-8,79,71,64,72,68,62,94,88,78,30.22,29.95,5,1,6,0.64
2013-6-9,86,76,67,76,70,64,93,82,64,30.28,30.18,9,2,12,0.01
2013-6-10,82,73,70,75,69,67,92,88,75,30.22,30.00,6,3,10,0.40
2013-6-11,83,75,68,70,67,65,92,77,59,30.10,30.03,6,1,9,0.02
2013-6-12,89,78,66,77,70,61,87,77,66,30.11,30.00,5,1,7,0.00
2013-6-13,93,79,68,76,70,60,89,76,42,30.01,29.77,10,1,20,0.21
2013-6-14,80,71,61,64,59,55,86,67,48,30.14,29.89,6,2,12,0.01
2013-6-15,85,73,60,66,61,55,86,67,48,30.24,30.14,3,1,7,0.00
2013-6-16,87,77,67,72,66,60,81,69,58,30.24,30.13,5,1,8,0.00
2013-6-17,87,77,71,74,69,65,83,76,62,30.15,30.05,5,1,8,0.01
2013-6-18,82,73,69,73,68,66,90,85,73,30.09,29.92,5,1,10,1.00
2013-6-19,81,73,65,71,67,62,92,81,68,30.23,30.02,5,0,8,0.01
2013-6-20,80,72,65,70,65,62,91,79,63,30.35,30.24,5,1,7,0.00
2013-6-21,83,72,62,67,61,56,82,69,52,30.38,30.30,3,1,7,0.00
2013-6-22,82,73,66,71,66,58,87,78,68,30.35,30.23,3,1,6,0.00
2013-6-23,87,77,68,75,69,64,89,78,63,30.33,30.24,6,2,10,0.00
2013-6-24,89,78,71,76,70,66,87,78,65,30.33,30.22,7,1,10,0.00
2013-6-25,90,78,70,77,69,65,85,75,60,30.25,30.12,7,1,12,0.00
2013-6-26,89,77,68,76,68,62,82,75,57,30.16,30.04,5,1,10,1.17
2013-6-27,86,77,68,74,68,62,83,75,65,30.10,29.87,5,1,7,0.00
2013-6-28,91,79,72,75,68,63,78,71,59,29.91,29.75,5,1,19,0.99
2013-6-29,86,76,70,72,66,62,76,70,62,29.86,29.76,6,2,11,0.04
2013-6-30,84,75,69,70,63,56,71,67,62,29.99,29.85,7,2,10,0.35
2013-7-1,80,74,69,62,57,52,61,56,52,30.07,29.97,7,2,10,0.21
2013-7-2,76,73,71,48,43,33,44,35,24,30.30,30.17,12,4,17,0.29
2013-7-3,79,75,72,34,24,2,24,15,6,30.36,30.27,7,3,9,0.24
2013-7-4,86,76,72,77,28,-33,94,38,1,30.39,30.31,7,3,15,0.23
2013-7-5,84,76,71,77,71,53,95,84,45,30.39,30.30,6,2,8,0.28
2013-7-6,86,77,70,76,72,68,94,85,68,30.38,30.25,6,2,13,0.37
2013-7-7,85,77,72,77,73,70,94,88,74,30.32,30.21,5,1,9,0.49
2013-7-8,85,77,72,76,72,70,95,86,69,30.32,30.24,5,1,7,0.16
2013-7-9,88,79,73,79,74,70,94,84,73,30.30,30.19,6,1,10,0.00
2013-7-10,88,79,72,77,72,69,92,82,66,30.24,30.08,7,1,7,0.28
2013-7-11,77,74,71,74,71,68,93,91,88,30.11,30.02,3,1,6,3.36
2013-7-12,76,72,69,70,68,65,90,86,78,30.16,30.02,3,1,6,0.01
2013-7-13,78,73,68,71,67,64,86,82,78,30.27,30.15,3,1,6,0.11
2013-7-14,85,76,71,74,67,62,78,72,68,30.42,30.27,8,3,10,0.07
2013-7-15,88,78,69,75,65,56,69,65,58,30.46,30.39,5,0,5,0.00
2013-7-16,94,80,69,77,66,54,68,62,55,30.43,30.34,5,0,5,0.00
2013-7-17,93,81,75,76,63,54,62,55,47,30.38,30.26,2,0,6,0.00
2013-7-18,92,81,73,73,57,46,54,44,33,30.30,30.18,6,0,7,0.00
2013-7-19,92,82,74,69,48,28,48,32,15,30.25,30.13,5,1,8,0.00
2013-7-20,89,79,73,57,15,-34,35,11,1,30.17,30.07,3,1,8,0.00
2013-7-21,92,78,72,79,37,-34,94,50,1,30.15,30.07,3,1,6,0.99
2013-7-22,89,78,71,70,24,-34,60,26,1,30.11,29.98,3,0,7,0.00
2013-7-23,100,82,72,76,35,-34,61,34,1,30.00,29.89,5,1,7,0.00
2013-7-24,102,84,70,75,43,-35,57,38,1,29.97,29.90,5,1,6,0.00
2013-7-25,86,74,67,69,7,-37,57,16,1,30.10,29.91,2,1,7,0.03
2013-7-26,85,77,65,69,67,64,97,71,56,30.15,30.06,3,1,8,0.03
2013-7-27,76,70,67,71,68,65,98,93,82,30.09,29.98,5,1,10,0.78
2013-7-28,86,75,68,72,69,68,98,83,58,30.04,29.97,2,0,10,0.10
2013-7-29,85,74,63,68,65,60,99,77,44,30.21,30.04,2,0,6,0.04
2013-7-30,85,73,64,70,64,58,96,75,52,30.27,30.19,3,0,7,0.00
2013-7-31,80,73,69,73,69,68,98,88,69,30.20,30.04,2,0,8,0.90
2013-8-1,86,76,69,74,71,68,98,85,63,30.04,29.91,2,0,7,0.00
2013-8-2,88,76,66,71,68,65,98,79,53,30.07,29.96,2,0,7,0.00
2013-8-3,89,78,68,77,71,67,97,81,56,30.06,29.95,2,0,10,0.00
2013-8-4,85,76,68,70,66,60,95,76,45,30.07,29.95,5,1,13,0.00
2013-8-5,82,72,62,68,66,60,96,81,59,30.13,30.03,3,1,10,0.00
2013-8-6,77,70,63,70,66,62,97,88,78,30.11,30.03,5,1,12,0.54
2013-8-7,84,75,68,72,69,66,96,84,59,30.14,30.07,6,1,12,0.00
2013-8-8,83,75,70,76,72,69,97,90,77,30.12,30.04,6,1,9,0.06
2013-8-9,89,77,71,76,73,69,98,88,64,30.09,30.03,5,1,25,0.44
2013-8-10,92,76,70,78,73,68,99,92,58,30.14,30.08,12,1,23,1.15
2013-8-11,90,78,70,77,73,69,99,86,58,30.16,30.06,2,0,6,0.01
2013-8-12,90,80,72,75,72,69,98,80,51,30.09,29.98,2,1,8,0.06
2013-8-13,87,75,71,76,72,68,98,90,66,29.99,29.84,5,1,20,0.08
2013-8-14,76,70,62,71,63,59,95,80,58,30.13,29.89,3,1,9,0.00
2013-8-15,74,64,56,61,57,54,97,79,54,30.22,30.13,5,0,9,0.00
2013-8-16,71,63,56,62,59,54,97,86,70,30.24,30.16,2,0,7,0.00
2013-8-17,65,63,60,65,61,58,98,95,89,30.25,30.19,2,1,9,1.55
2013-8-18,78,69,64,70,66,64,99,91,74,30.28,30.18,2,0,5,0.25
2013-8-19,74,69,64,70,67,64,98,94,85,30.24,30.15,2,0,6,0.26
2013-8-20,80,71,62,72,68,62,99,90,73,30.24,30.16,2,0,4,0.00
2013-8-21,83,74,68,75,72,67,99,92,70,30.25,30.13,3,0,5,0.11
2013-8-22,87,76,68,74,70,66,99,84,57,30.17,30.02,2,0,7,0.14
2013-8-23,85,74,65,73,69,62,97,85,62,30.10,29.97,5,1,12,0.08
2013-8-24,80,70,62,64,61,58,97,77,48,30.33,30.11,3,1,10,0.00
2013-8-25,79,68,57,66,61,56,99,80,51,30.42,30.32,3,0,8,0.00
2013-8-26,83,67,53,65,59,52,99,78,48,30.36,30.15,3,0,12,0.00
2013-8-27,87,74,64,75,68,59,96,80,58,30.16,30.00,5,1,8,0.00
2013-8-28,85,77,68,75,72,67,98,84,65,30.02,29.91,2,0,5,0.00
2013-8-29,87,78,73,74,72,69,94,81,62,30.02,29.88,5,1,12,0.00
2013-8-30,87,74,67,71,68,65,98,82,51,30.08,29.96,3,0,7,0.01
2013-8-31,87,74,66,76,70,65,98,86,66,29.98,29.89,6,1,13,0.38
2013-9-1,89,74,67,76,70,66,99,91,63,29.92,29.81,3,0,23,0.30
2013-9-2,87,76,68,74,70,67,99,85,57,29.92,29.83,2,0,8,0.01
2013-9-3,88,77,67,73,70,66,97,80,52,29.97,29.82,2,0,10,0.00
2013-9-4,85,72,62,69,64,60,97,78,50,30.12,29.98,3,0,9,0.00
2013-9-5,86,71,60,67,61,55,99,74,35,30.16,30.09,2,0,7,0.00
2013-9-6,81,70,62,62,59,55,94,69,48,30.24,30.14,3,1,9,0.00
2013-9-7,82,69,59,67,62,57,97,80,57,30.18,29.98,3,1,7,0.00
2013-9-8,86,73,64,72,66,63,97,80,51,30.02,29.95,3,0,7,0.00
2013-9-9,87,74,64,71,67,63,99,81,53,30.17,30.02,3,0,9,0.00
2013-9-10,89,76,66,74,69,65,98,79,53,30.26,30.16,2,0,8,0.00
2013-9-11,90,78,69,72,68,64,88,74,52,30.23,30.10,5,0,9,0.00
2013-9-12,89,77,69,73,69,65,91,78,56,30.09,29.85,3,0,10,0.00
2013-9-13,82,73,63,68,60,52,93,68,41,29.94,29.79,6,2,15,0.00
2013-9-14,75,64,55,58,52,49,92,69,49,30.17,29.94,3,1,10,0.00
2013-9-15,80,65,52,64,57,50,95,79,51,30.28,30.16,3,1,8,0.00
2013-9-16,82,72,62,68,64,59,97,76,49,30.22,30.08,3,1,10,0.00
2013-9-17,75,65,56,58,55,52,89,70,46,30.35,30.22,6,1,12,0.00
2013-9-18,73,61,51,57,53,49,96,77,52,30.36,30.22,2,0,8,0.00
2013-9-19,76,64,52,63,57,50,95,80,58,30.24,30.10,2,0,7,0.00
2013-9-20,82,71,64,69,65,61,97,83,64,30.10,29.95,3,1,9,0.12
2013-9-21,77,68,63,70,66,62,98,94,77,29.97,29.73,3,1,13,0.56
2013-9-22,76,65,56,62,57,54,98,78,48,29.92,29.74,5,1,12,0.07
2013-9-23,74,62,53,57,54,49,95,75,51,30.09,29.92,5,1,8,0.00
2013-9-24,76,64,56,60,57,54,97,80,52,30.12,29.97,3,0,15,0.00
2013-9-25,71,62,53,61,58,52,99,88,68,29.97,29.90,2,0,5,0.01
2013-9-26,74,63,54,59,56,50,99,80,46,30.07,29.91,3,0,12,0.00
2013-9-27,74,62,50,59,54,49,98,78,49,30.21,30.07,3,1,9,0.00
2013-9-28,68,59,50,56,53,49,98,81,57,30.30,30.20,5,1,10,0.00
2013-9-29,70,59,49,57,53,48,97,83,57,30.21,30.07,2,0,7,0.00
2013-9-30,67,60,48,60,56,47,99,86,77,30.14,30.08,1,0,3,0.00
2013-10-1,81,70,60,62,59,56,92,71,45,30.15,30.05,3,0,8,0.00
2013-10-2,84,68,55,62,59,54,99,77,45,30.16,30.07,5,0,9,0.02
2013-10-3,85,70,59,65,61,57,98,75,46,30.14,30.07,2,0,8,0.00
2013-10-4,86,75,60,66,63,59,98,70,47,30.15,30.07,2,0,7,0.00
2013-10-5,88,72,60,69,63,59,99,78,46,30.13,30.04,3,0,10,0.00
2013-10-6,83,72,60,67,64,59,98,76,55,30.06,29.92,6,2,14,0.00
2013-10-7,73,70,67,71,68,66,99,95,88,29.92,29.82,6,2,14,0.70
2013-10-8,66,59,55,50,48,44,78,65,52,30.24,30.11,7,2,16,0.00
2013-10-9,68,58,52,54,49,45,85,72,54,30.25,30.15,5,2,18,0.00
2013-10-10,67,60,53,61,55,48,96,86,76,30.15,29.99,3,1,13,0.05
2013-10-11,71,65,59,63,60,57,95,85,69,30.01,29.94,2,0,9,0.00
2013-10-12,72,64,53,63,60,52,99,88,70,30.12,29.98,0,0,0,0.00
2013-10-13,65,62,60,62,60,59,97,94,89,30.25,30.11,0,0,1,0.06
2013-10-14,64,60,58,60,58,56,98,93,86,30.28,30.20,0,0,1,0.07
2013-10-15,72,61,52,56,54,51,98,79,50,30.24,30.09,2,0,7,0.00
2013-10-16,75,65,55,61,58,53,98,80,59,30.11,29.97,3,0,5,0.00
2013-10-17,70,64,59,64,61,58,98,92,77,29.99,29.86,1,0,7,0.07
2013-10-18,70,60,51,64,53,46,98,80,51,30.07,29.91,5,1,8,0.00
2013-10-19,61,57,51,59,56,49,99,96,93,30.01,29.86,2,0,5,0.04
2013-10-20,64,51,42,54,42,37,99,76,38,30.15,29.95,3,1,10,0.01
2013-10-21,68,53,37,51,45,36,98,77,48,30.20,30.03,2,0,7,0.00
2013-10-22,67,59,55,58,54,51,97,84,59,30.04,29.83,5,0,7,0.00
2013-10-23,63,56,44,58,45,31,98,69,33,30.05,29.73,10,3,24,0.00
2013-10-24,56,44,31,38,33,29,94,66,44,30.23,30.05,5,1,17,0.00
2013-10-25,52,42,28,34,31,26,95,67,41,30.43,30.23,6,1,12,0.00
2013-10-26,58,42,24,36,30,23,97,67,37,30.42,30.13,3,0,12,0.00
2013-10-27,68,53,38,45,41,36,95,65,39,30.17,30.08,3,1,10,0.00
2013-10-28,68,54,44,52,48,43,97,82,56,30.30,30.15,3,0,7,0.00
2013-10-29,71,59,48,56,52,46,97,81,53,30.37,30.27,5,0,8,0.00
2013-10-30,77,63,52,59,55,50,94,77,51,30.31,30.17,3,1,10,0.00
2013-10-31,70,64,55,63,57,53,94,79,65,30.20,29.91,9,3,18,0.00
2013-11-1,68,65,59,65,62,57,96,91,81,29.90,29.68,8,2,24,0.52
2013-11-2,68,58,49,58,48,37,99,75,38,29.99,29.73,6,1,17,0.01
2013-11-3,60,49,38,39,36,34,90,62,38,30.40,30.00,6,1,16,0.00
2013-11-4,55,45,38,35,32,28,74,61,42,30.58,30.40,8,1,14,0.00
2013-11-5,55,46,35,48,38,29,92,76,63,30.61,30.48,3,1,12,0.00
2013-11-6,70,56,44,54,49,42,95,79,56,30.48,30.15,5,1,10,0.00
2013-11-7,64,55,45,57,47,32,98,77,47,30.16,29.98,8,2,15,0.00
2013-11-8,54,43,27,33,27,23,96,57,30,30.37,30.17,7,1,17,0.00
2013-11-9,57,44,28,33,28,24,91,58,33,30.42,30.24,5,0,12,0.00
2013-11-10,70,54,38,39,33,25,82,49,25,30.28,30.12,6,2,15,0.00
2013-11-11,59,47,31,30,28,25,78,49,29,30.39,30.18,6,1,10,0.00
2013-11-12,59,43,30,38,31,19,95,65,37,30.49,30.09,8,2,17,0.10
2013-11-13,44,31,18,20,18,16,90,62,33,30.60,30.49,7,1,14,0.00
2013-11-14,57,40,24,25,22,18,84,51,25,30.54,30.38,5,1,10,0.00
2013-11-15,60,48,35,48,34,20,92,59,37,30.40,30.25,7,1,10,0.01
2013-11-16,60,53,49,56,52,46,99,94,87,30.31,30.24,1,0,4,0.08
2013-11-17,66,59,54,63,57,53,99,94,78,30.25,29.89,7,2,15,0.14
2013-11-18,72,63,49,65,49,30,98,65,33,30.01,29.83,8,2,16,0.12
2013-11-19,53,46,38,30,27,25,65,48,35,30.34,30.01,6,2,15,0.00
2013-11-20,51,42,34,34,29,26,73,61,46,30.52,30.34,5,1,13,0.00
2013-11-21,57,48,41,44,39,34,80,73,60,30.55,30.43,3,1,9,0.00
2013-11-22,66,56,48,58,51,43,95,82,72,30.44,30.12,5,1,14,0.00
2013-11-23,59,53,40,58,40,16,99,66,27,30.24,30.07,7,2,20,0.00
2013-11-24,39,31,24,19,8,1,53,38,24,30.60,30.24,8,3,18,0.00
2013-11-25,40,30,17,15,8,5,74,41,24,30.64,30.44,7,1,10,0.00
2013-11-26,50,38,31,50,33,11,99,85,35,30.44,29.59,9,2,17,2.05
2013-11-27,44,37,27,44,30,14,99,78,54,30.17,29.53,9,4,24,0.50
2013-11-28,43,30,18,20,16,13,80,57,34,30.47,30.18,8,1,16,0.00
2013-11-29,49,36,24,26,23,19,85,60,38,30.61,30.47,5,1,12,0.00
2013-11-30,46,34,26,26,24,21,87,69,45,30.64,30.38,3,1,12,0.00
2013-12-1,57,39,24,36,29,22,93,72,38,30.37,30.02,2,0,7,0.00
2013-12-2,58,44,29,43,38,29,99,79,53,30.01,29.80,5,0,8,0.00
2013-12-3,56,47,35,49,43,34,98,86,75,29.96,29.85,5,2,8,0.00
2013-12-4,59,55,50,57,53,47,99,95,87,30.05,29.94,5,1,8,0.07
2013-12-5,64,61,57,63,60,56,99,98,93,30.07,29.97,7,3,14,0.08
2013-12-6,75,69,64,64,63,62,98,83,63,30.00,29.90,8,5,26,0.00
2013-12-7,69,49,42,64,46,36,97,88,78,30.41,29.93,6,2,15,0.34
2013-12-8,41,34,31,36,31,27,98,89,67,30.42,30.29,5,2,12,0.19
2013-12-9,43,38,32,43,37,32,99,98,98,30.28,30.05,3,1,8,0.45
2013-12-10,49,41,26,44,37,20,99,87,47,30.30,29.90,9,2,18,0.26
2013-12-11,48,34,20,27,23,18,94,66,40,30.44,30.29,3,0,9,0.00
2013-12-12,43,34,24,26,18,11,76,53,30,30.41,30.28,7,2,14,0.00
2013-12-13,50,36,21,28,20,12,75,53,30,30.37,30.25,5,1,12,0.00
2013-12-14,45,39,36,41,33,28,98,80,58,30.28,29.77,7,1,13,0.64
2013-12-15,49,40,33,41,34,27,99,80,54,30.07,29.72,8,2,17,0.00
2013-12-16,56,42,30,34,30,26,87,66,41,30.15,30.06,3,1,12,0.00
2013-12-17,60,48,37,37,34,29,78,59,38,30.10,29.85,10,2,21,0.00
2013-12-18,48,39,26,31,19,14,75,47,26,30.27,30.01,6,1,15,0.00
2013-12-19,62,47,32,28,23,18,58,40,24,30.30,30.19,5,2,12,0.00
2013-12-20,64,53,41,52,42,28,87,66,45,30.22,30.09,6,2,15,0.00
2013-12-21,71,61,50,63,56,49,97,85,69,30.11,29.97,10,3,23,0.00
2013-12-22,72,66,61,67,64,60,97,91,82,30.02,29.93,12,5,24,1.25
2013-12-23,63,57,43,62,55,36,98,93,76,30.13,29.94,8,3,16,1.54
2013-12-24,44,37,27,35,25,14,77,61,41,30.45,30.12,7,3,18,0.00
2013-12-25,38,27,19,14,11,8,72,54,31,30.55,30.40,5,1,9,0.00
2013-12-26,50,34,23,26,20,12,80,59,38,30.40,30.25,5,1,8,0.00
2013-12-27,51,37,24,23,20,18,80,53,28,30.47,30.36,2,0,7,0.00
2013-12-28,55,42,28,36,26,19,77,55,33,30.41,30.15,2,0,6,0.00
2013-12-29,54,46,40,48,42,35,98,88,68,30.12,29.71,6,2,13,0.99
2013-12-30,50,42,33,41,37,32,98,82,67,30.11,29.91,3,0,7,0.00
2013-12-31,48,40,30,35,27,20,97,64,33,30.35,30.10,7,1,17,0.00
2014-1-1,50,38,27,30,25,21,84,62,36,30.39,30.14,7,1,12,0.00
2014-1-2,45,40,34,42,36,29,97,86,68,30.14,29.60,7,1,13,0.38